sensor_id;sensor_type;location;lat;lon;timestamp;P1;durP1;ratioP1;P2;durP2;ratioP2
40609;SDS011;26316;55.976;37.140;2023-02-15T00:01:18;2.80;;;1.00;;
40609;SDS011;26316;55.976;37.140;2023-02-15T00:03:44;4.00;;;0.90;;
40609;SDS011;26316;55.976;37.140;2023-02-15T00:06:09;3.25;;;1.10;;
40609;SDS011;26316;55.976;37.140;2023-02-15T00:08:35;3.28;;;1.20;;
40609;SDS011;26316;55.976;37.140;2023-02-15T00:11:07;3.65;;;1.08;;
40609;SDS011;26316;55.976;37.140;2023-02-15T00:13:34;2.88;;;1.17;;
40609;SDS011;26316;55.976;37.140;2023-02-15T00:16:19;2.80;;;1.02;;
40609;SDS011;26316;55.976;37.140;2023-02-15T00:18:45;3.90;;;1.35;;
40609;SDS011;26316;55.976;37.140;2023-02-15T00:21:10;3.40;;;1.40;;
40609;SDS011;26316;55.976;37.140;2023-02-15T00:23:36;2.03;;;1.25;;
40609;SDS011;26316;55.976;37.140;2023-02-15T00:26:05;3.28;;;1.30;;
40609;SDS011;26316;55.976;37.140;2023-02-15T00:28:32;2.40;;;1.10;;
40609;SDS011;26316;55.976;37.140;2023-02-15T00:31:16;3.78;;;1.35;;
40609;SDS011;26316;55.976;37.140;2023-02-15T00:33:42;4.63;;;1.25;;
40609;SDS011;26316;55.976;37.140;2023-02-15T00:36:09;3.25;;;1.27;;
40609;SDS011;26316;55.976;37.140;2023-02-15T00:38:35;4.45;;;1.00;;
40609;SDS011;26316;55.976;37.140;2023-02-15T00:41:02;4.22;;;1.80;;
40609;SDS011;26316;55.976;37.140;2023-02-15T00:43:29;3.42;;;1.40;;
40609;SDS011;26316;55.976;37.140;2023-02-15T00:45:56;2.97;;;1.17;;
40609;SDS011;26316;55.976;37.140;2023-02-15T00:48:22;3.03;;;1.25;;
40609;SDS011;26316;55.976;37.140;2023-02-15T00:50:52;3.55;;;1.13;;
40609;SDS011;26316;55.976;37.140;2023-02-15T00:53:19;3.42;;;1.17;;
40609;SDS011;26316;55.976;37.140;2023-02-15T00:55:45;2.53;;;1.00;;
40609;SDS011;26316;55.976;37.140;2023-02-15T00:58:11;2.88;;;1.52;;
40609;SDS011;26316;55.976;37.140;2023-02-15T01:00:38;4.60;;;1.67;;
40609;SDS011;26316;55.976;37.140;2023-02-15T01:03:05;4.90;;;1.10;;
40609;SDS011;26316;55.976;37.140;2023-02-15T01:05:31;4.07;;;1.33;;
40609;SDS011;26316;55.976;37.140;2023-02-15T01:07:57;3.88;;;0.90;;
40609;SDS011;26316;55.976;37.140;2023-02-15T01:10:24;2.60;;;1.15;;
40609;SDS011;26316;55.976;37.140;2023-02-15T01:12:50;4.35;;;1.08;;
40609;SDS011;26316;55.976;37.140;2023-02-15T01:15:17;5.40;;;1.67;;
40609;SDS011;26316;55.976;37.140;2023-02-15T01:17:43;4.13;;;1.92;;
40609;SDS011;26316;55.976;37.140;2023-02-15T01:20:11;5.85;;;1.70;;
40609;SDS011;26316;55.976;37.140;2023-02-15T01:22:36;5.00;;;1.48;;
40609;SDS011;26316;55.976;37.140;2023-02-15T01:25:02;3.72;;;1.42;;
40609;SDS011;26316;55.976;37.140;2023-02-15T01:27:28;3.05;;;1.30;;
40609;SDS011;26316;55.976;37.140;2023-02-15T01:29:56;3.22;;;1.48;;
40609;SDS011;26316;55.976;37.140;2023-02-15T01:32:22;4.70;;;1.70;;
40609;SDS011;26316;55.976;37.140;2023-02-15T01:34:47;3.65;;;1.35;;
40609;SDS011;26316;55.976;37.140;2023-02-15T01:37:13;4.45;;;1.15;;
40609;SDS011;26316;55.976;37.140;2023-02-15T01:39:40;4.30;;;1.40;;
40609;SDS011;26316;55.976;37.140;2023-02-15T01:42:09;5.57;;;1.55;;
40609;SDS011;26316;55.976;37.140;2023-02-15T01:47:12;3.50;;;1.30;;
40609;SDS011;26316;55.976;37.140;2023-02-15T01:49:40;3.35;;;1.23;;
40609;SDS011;26316;55.976;37.140;2023-02-15T01:52:08;3.25;;;1.00;;
40609;SDS011;26316;55.976;37.140;2023-02-15T01:54:35;3.47;;;1.45;;
40609;SDS011;26316;55.976;37.140;2023-02-15T01:57:04;3.50;;;1.42;;
40609;SDS011;26316;55.976;37.140;2023-02-15T01:59:34;4.22;;;1.73;;
40609;SDS011;26316;55.976;37.140;2023-02-15T02:02:01;5.50;;;1.20;;
40609;SDS011;26316;55.976;37.140;2023-02-15T02:07:07;5.45;;;1.77;;
40609;SDS011;26316;55.976;37.140;2023-02-15T02:09:35;4.38;;;1.00;;
40609;SDS011;26316;55.976;37.140;2023-02-15T02:12:01;2.83;;;1.10;;
40609;SDS011;26316;55.976;37.140;2023-02-15T02:14:27;3.65;;;1.35;;
40609;SDS011;26316;55.976;37.140;2023-02-15T02:22:40;4.13;;;0.95;;
40609;SDS011;26316;55.976;37.140;2023-02-15T02:36:22;5.30;;;1.50;;
40609;SDS011;26316;55.976;37.140;2023-02-15T02:39:12;3.67;;;1.52;;
40609;SDS011;26316;55.976;37.140;2023-02-15T02:42:06;3.78;;;1.23;;
40609;SDS011;26316;55.976;37.140;2023-02-15T02:44:44;7.13;;;1.20;;
40609;SDS011;26316;55.976;37.140;2023-02-15T02:47:18;4.68;;;1.08;;
40609;SDS011;26316;55.976;37.140;2023-02-15T02:49:51;4.95;;;1.55;;
40609;SDS011;26316;55.976;37.140;2023-02-15T02:55:18;10.48;;;1.25;;
40609;SDS011;26316;55.976;37.140;2023-02-15T03:03:29;4.40;;;1.25;;
40609;SDS011;26316;55.976;37.140;2023-02-15T03:05:59;5.10;;;1.45;;
40609;SDS011;26316;55.976;37.140;2023-02-15T03:08:39;2.58;;;0.80;;
40609;SDS011;26316;55.976;37.140;2023-02-15T03:11:08;4.63;;;1.20;;
40609;SDS011;26316;55.976;37.140;2023-02-15T03:13:34;4.75;;;1.30;;
40609;SDS011;26316;55.976;37.140;2023-02-15T03:16:00;3.17;;;1.15;;
40609;SDS011;26316;55.976;37.140;2023-02-15T03:18:48;2.88;;;1.15;;
40609;SDS011;26316;55.976;37.140;2023-02-15T03:24:11;1.98;;;1.10;;
40609;SDS011;26316;55.976;37.140;2023-02-15T03:26:38;5.28;;;1.55;;
40609;SDS011;26316;55.976;37.140;2023-02-15T03:29:06;3.75;;;1.33;;
40609;SDS011;26316;55.976;37.140;2023-02-15T03:31:33;2.30;;;1.30;;
40609;SDS011;26316;55.976;37.140;2023-02-15T03:34:03;2.47;;;1.00;;
40609;SDS011;26316;55.976;37.140;2023-02-15T03:39:40;3.40;;;1.00;;
40609;SDS011;26316;55.976;37.140;2023-02-15T03:44:43;3.83;;;0.90;;
40609;SDS011;26316;55.976;37.140;2023-02-15T03:47:27;3.85;;;1.25;;
40609;SDS011;26316;55.976;37.140;2023-02-15T03:49:57;4.60;;;1.60;;
40609;SDS011;26316;55.976;37.140;2023-02-15T03:52:26;2.33;;;1.08;;
40609;SDS011;26316;55.976;37.140;2023-02-15T03:54:53;4.22;;;1.30;;
40609;SDS011;26316;55.976;37.140;2023-02-15T03:57:26;2.40;;;1.17;;
40609;SDS011;26316;55.976;37.140;2023-02-15T04:00:13;3.60;;;1.25;;
40609;SDS011;26316;55.976;37.140;2023-02-15T04:03:28;5.50;;;1.75;;
40609;SDS011;26316;55.976;37.140;2023-02-15T04:05:49;4.13;;;1.30;;
40609;SDS011;26316;55.976;37.140;2023-02-15T04:08:15;4.82;;;1.60;;
40609;SDS011;26316;55.976;37.140;2023-02-15T04:10:41;4.32;;;1.63;;
40609;SDS011;26316;55.976;37.140;2023-02-15T04:13:21;6.17;;;1.53;;
40609;SDS011;26316;55.976;37.140;2023-02-15T04:15:48;6.20;;;1.40;;
40609;SDS011;26316;55.976;37.140;2023-02-15T04:18:37;6.90;;;1.75;;
40609;SDS011;26316;55.976;37.140;2023-02-15T04:21:25;4.13;;;1.00;;
40609;SDS011;26316;55.976;37.140;2023-02-15T04:24:11;4.32;;;1.63;;
40609;SDS011;26316;55.976;37.140;2023-02-15T04:26:55;4.72;;;1.40;;
40609;SDS011;26316;55.976;37.140;2023-02-15T04:29:22;4.90;;;1.50;;
40609;SDS011;26316;55.976;37.140;2023-02-15T04:31:49;5.93;;;1.33;;
40609;SDS011;26316;55.976;37.140;2023-02-15T04:34:15;3.97;;;1.10;;
40609;SDS011;26316;55.976;37.140;2023-02-15T04:36:41;6.13;;;1.40;;
40609;SDS011;26316;55.976;37.140;2023-02-15T04:39:07;3.40;;;1.55;;
40609;SDS011;26316;55.976;37.140;2023-02-15T04:41:33;4.32;;;1.73;;
40609;SDS011;26316;55.976;37.140;2023-02-15T04:43:59;5.97;;;1.50;;
40609;SDS011;26316;55.976;37.140;2023-02-15T04:46:25;5.32;;;1.92;;
40609;SDS011;26316;55.976;37.140;2023-02-15T04:48:52;3.85;;;1.40;;
40609;SDS011;26316;55.976;37.140;2023-02-15T04:51:17;5.05;;;1.73;;
40609;SDS011;26316;55.976;37.140;2023-02-15T04:53:43;4.93;;;1.83;;
40609;SDS011;26316;55.976;37.140;2023-02-15T04:56:09;4.50;;;1.58;;
40609;SDS011;26316;55.976;37.140;2023-02-15T04:58:34;3.72;;;1.50;;
40609;SDS011;26316;55.976;37.140;2023-02-15T05:01:02;4.68;;;1.50;;
40609;SDS011;26316;55.976;37.140;2023-02-15T05:03:28;6.07;;;1.65;;
40609;SDS011;26316;55.976;37.140;2023-02-15T05:05:54;2.97;;;1.20;;
40609;SDS011;26316;55.976;37.140;2023-02-15T05:08:20;4.20;;;1.65;;
40609;SDS011;26316;55.976;37.140;2023-02-15T05:10:47;2.97;;;1.17;;
40609;SDS011;26316;55.976;37.140;2023-02-15T05:13:14;4.28;;;1.42;;
40609;SDS011;26316;55.976;37.140;2023-02-15T05:15:40;6.80;;;1.60;;
40609;SDS011;26316;55.976;37.140;2023-02-15T05:18:05;5.03;;;1.48;;
40609;SDS011;26316;55.976;37.140;2023-02-15T05:20:32;4.00;;;1.38;;
40609;SDS011;26316;55.976;37.140;2023-02-15T05:22:58;3.58;;;1.48;;
40609;SDS011;26316;55.976;37.140;2023-02-15T05:25:24;3.05;;;1.48;;
40609;SDS011;26316;55.976;37.140;2023-02-15T05:28:09;5.40;;;1.40;;
40609;SDS011;26316;55.976;37.140;2023-02-15T05:30:45;4.00;;;1.70;;
40609;SDS011;26316;55.976;37.140;2023-02-15T05:33:13;5.25;;;1.73;;
40609;SDS011;26316;55.976;37.140;2023-02-15T05:35:39;8.25;;;2.15;;
40609;SDS011;26316;55.976;37.140;2023-02-15T05:38:05;4.32;;;1.48;;
40609;SDS011;26316;55.976;37.140;2023-02-15T05:40:31;7.40;;;2.05;;
40609;SDS011;26316;55.976;37.140;2023-02-15T05:42:56;3.63;;;2.10;;
40609;SDS011;26316;55.976;37.140;2023-02-15T05:45:22;4.20;;;1.77;;
40609;SDS011;26316;55.976;37.140;2023-02-15T05:47:48;5.38;;;2.03;;
40609;SDS011;26316;55.976;37.140;2023-02-15T05:50:14;4.05;;;2.40;;
40609;SDS011;26316;55.976;37.140;2023-02-15T05:52:39;4.13;;;2.05;;
40609;SDS011;26316;55.976;37.140;2023-02-15T05:55:05;8.65;;;2.00;;
40609;SDS011;26316;55.976;37.140;2023-02-15T05:57:31;6.43;;;2.22;;
40609;SDS011;26316;55.976;37.140;2023-02-15T05:59:57;6.38;;;2.40;;
40609;SDS011;26316;55.976;37.140;2023-02-15T06:02:23;7.10;;;2.33;;
40609;SDS011;26316;55.976;37.140;2023-02-15T06:04:49;5.38;;;2.58;;
40609;SDS011;26316;55.976;37.140;2023-02-15T06:07:14;4.15;;;2.50;;
40609;SDS011;26316;55.976;37.140;2023-02-15T06:09:40;5.47;;;2.00;;
40609;SDS011;26316;55.976;37.140;2023-02-15T06:12:05;6.03;;;1.95;;
40609;SDS011;26316;55.976;37.140;2023-02-15T06:14:31;5.97;;;2.22;;
40609;SDS011;26316;55.976;37.140;2023-02-15T06:16:57;5.18;;;1.80;;
40609;SDS011;26316;55.976;37.140;2023-02-15T06:19:22;5.55;;;2.47;;
40609;SDS011;26316;55.976;37.140;2023-02-15T06:21:48;5.25;;;2.30;;
40609;SDS011;26316;55.976;37.140;2023-02-15T06:24:15;8.50;;;2.17;;
40609;SDS011;26316;55.976;37.140;2023-02-15T06:26:40;5.32;;;1.83;;
40609;SDS011;26316;55.976;37.140;2023-02-15T06:29:06;9.15;;;2.60;;
40609;SDS011;26316;55.976;37.140;2023-02-15T06:31:32;5.35;;;2.20;;
40609;SDS011;26316;55.976;37.140;2023-02-15T06:33:57;4.63;;;2.00;;
40609;SDS011;26316;55.976;37.140;2023-02-15T06:36:29;4.20;;;2.10;;
40609;SDS011;26316;55.976;37.140;2023-02-15T06:38:56;4.55;;;2.30;;
40609;SDS011;26316;55.976;37.140;2023-02-15T06:41:22;5.85;;;2.22;;
40609;SDS011;26316;55.976;37.140;2023-02-15T06:43:47;5.93;;;2.13;;
40609;SDS011;26316;55.976;37.140;2023-02-15T06:46:13;4.85;;;2.20;;
40609;SDS011;26316;55.976;37.140;2023-02-15T06:48:39;4.03;;;2.30;;
40609;SDS011;26316;55.976;37.140;2023-02-15T06:51:04;6.60;;;2.65;;
40609;SDS011;26316;55.976;37.140;2023-02-15T06:53:30;4.72;;;2.42;;
40609;SDS011;26316;55.976;37.140;2023-02-15T06:56:02;11.30;;;2.90;;
40609;SDS011;26316;55.976;37.140;2023-02-15T06:58:35;5.88;;;2.60;;
40609;SDS011;26316;55.976;37.140;2023-02-15T07:01:01;6.32;;;2.70;;
40609;SDS011;26316;55.976;37.140;2023-02-15T07:03:26;277.42;;;186.75;;
40609;SDS011;26316;55.976;37.140;2023-02-15T07:05:56;245.70;;;173.50;;
40609;SDS011;26316;55.976;37.140;2023-02-15T07:08:23;66.22;;;43.88;;
40609;SDS011;26316;55.976;37.140;2023-02-15T07:10:49;38.55;;;24.90;;
40609;SDS011;26316;55.976;37.140;2023-02-15T07:13:15;20.95;;;11.13;;
40609;SDS011;26316;55.976;37.140;2023-02-15T07:15:41;15.48;;;7.70;;
40609;SDS011;26316;55.976;37.140;2023-02-15T07:18:06;10.15;;;7.07;;
40609;SDS011;26316;55.976;37.140;2023-02-15T07:20:32;8.63;;;4.35;;
40609;SDS011;26316;55.976;37.140;2023-02-15T07:23:01;7.22;;;3.25;;
40609;SDS011;26316;55.976;37.140;2023-02-15T07:25:27;9.57;;;3.35;;
40609;SDS011;26316;55.976;37.140;2023-02-15T07:27:59;3.92;;;2.00;;
40609;SDS011;26316;55.976;37.140;2023-02-15T07:30:26;4.55;;;1.77;;
40609;SDS011;26316;55.976;37.140;2023-02-15T07:32:55;5.05;;;1.60;;
40609;SDS011;26316;55.976;37.140;2023-02-15T07:35:47;6.40;;;2.08;;
40609;SDS011;26316;55.976;37.140;2023-02-15T07:38:16;4.90;;;1.80;;
40609;SDS011;26316;55.976;37.140;2023-02-15T07:40:42;4.85;;;1.95;;
40609;SDS011;26316;55.976;37.140;2023-02-15T07:43:08;5.03;;;2.00;;
40609;SDS011;26316;55.976;37.140;2023-02-15T07:45:34;3.58;;;1.67;;
40609;SDS011;26316;55.976;37.140;2023-02-15T07:48:02;7.32;;;2.15;;
40609;SDS011;26316;55.976;37.140;2023-02-15T07:50:29;6.13;;;1.67;;
40609;SDS011;26316;55.976;37.140;2023-02-15T07:52:55;5.15;;;2.10;;
40609;SDS011;26316;55.976;37.140;2023-02-15T07:55:20;4.22;;;2.17;;
40609;SDS011;26316;55.976;37.140;2023-02-15T07:57:47;3.88;;;1.80;;
40609;SDS011;26316;55.976;37.140;2023-02-15T08:00:14;4.68;;;1.85;;
40609;SDS011;26316;55.976;37.140;2023-02-15T08:02:42;4.45;;;2.00;;
40609;SDS011;26316;55.976;37.140;2023-02-15T08:05:07;7.90;;;2.60;;
40609;SDS011;26316;55.976;37.140;2023-02-15T08:07:33;5.72;;;2.70;;
40609;SDS011;26316;55.976;37.140;2023-02-15T08:09:59;8.20;;;2.60;;
40609;SDS011;26316;55.976;37.140;2023-02-15T08:12:27;8.50;;;2.92;;
40609;SDS011;26316;55.976;37.140;2023-02-15T08:14:53;5.27;;;3.17;;
40609;SDS011;26316;55.976;37.140;2023-02-15T08:17:19;7.53;;;2.83;;
40609;SDS011;26316;55.976;37.140;2023-02-15T08:19:44;7.13;;;2.75;;
40609;SDS011;26316;55.976;37.140;2023-02-15T08:22:12;6.15;;;2.97;;
40609;SDS011;26316;55.976;37.140;2023-02-15T08:24:39;6.10;;;2.95;;
40609;SDS011;26316;55.976;37.140;2023-02-15T08:27:07;9.00;;;3.38;;
40609;SDS011;26316;55.976;37.140;2023-02-15T08:29:34;5.07;;;2.63;;
40609;SDS011;26316;55.976;37.140;2023-02-15T08:32:02;7.55;;;3.33;;
40609;SDS011;26316;55.976;37.140;2023-02-15T08:34:36;6.72;;;3.30;;
40609;SDS011;26316;55.976;37.140;2023-02-15T08:37:03;6.53;;;2.83;;
40609;SDS011;26316;55.976;37.140;2023-02-15T08:39:31;6.90;;;3.28;;
40609;SDS011;26316;55.976;37.140;2023-02-15T08:41:56;3.72;;;2.35;;
40609;SDS011;26316;55.976;37.140;2023-02-15T08:44:22;6.78;;;2.75;;
40609;SDS011;26316;55.976;37.140;2023-02-15T08:46:48;8.45;;;2.65;;
40609;SDS011;26316;55.976;37.140;2023-02-15T08:49:18;4.35;;;2.42;;
40609;SDS011;26316;55.976;37.140;2023-02-15T08:51:46;4.57;;;2.28;;
40609;SDS011;26316;55.976;37.140;2023-02-15T08:54:13;5.13;;;2.35;;
40609;SDS011;26316;55.976;37.140;2023-02-15T08:56:41;5.47;;;2.33;;
40609;SDS011;26316;55.976;37.140;2023-02-15T08:59:11;5.03;;;2.10;;
40609;SDS011;26316;55.976;37.140;2023-02-15T09:01:38;4.93;;;1.98;;
40609;SDS011;26316;55.976;37.140;2023-02-15T09:04:05;5.88;;;2.40;;
40609;SDS011;26316;55.976;37.140;2023-02-15T09:06:35;4.53;;;2.05;;
40609;SDS011;26316;55.976;37.140;2023-02-15T09:09:02;4.75;;;2.13;;
40609;SDS011;26316;55.976;37.140;2023-02-15T09:11:30;5.30;;;2.40;;
40609;SDS011;26316;55.976;37.140;2023-02-15T09:14:01;3.17;;;1.80;;
40609;SDS011;26316;55.976;37.140;2023-02-15T09:16:29;6.55;;;2.22;;
40609;SDS011;26316;55.976;37.140;2023-02-15T09:18:56;6.20;;;2.13;;
40609;SDS011;26316;55.976;37.140;2023-02-15T09:21:32;5.35;;;2.15;;
40609;SDS011;26316;55.976;37.140;2023-02-15T09:23:59;4.40;;;1.92;;
40609;SDS011;26316;55.976;37.140;2023-02-15T09:26:27;5.57;;;2.40;;
40609;SDS011;26316;55.976;37.140;2023-02-15T09:28:54;3.15;;;1.73;;
40609;SDS011;26316;55.976;37.140;2023-02-15T09:31:22;5.05;;;2.22;;
40609;SDS011;26316;55.976;37.140;2023-02-15T09:33:49;4.80;;;2.25;;
40609;SDS011;26316;55.976;37.140;2023-02-15T09:36:19;7.05;;;2.60;;
40609;SDS011;26316;55.976;37.140;2023-02-15T09:38:47;6.38;;;2.75;;
40609;SDS011;26316;55.976;37.140;2023-02-15T09:41:32;7.75;;;2.78;;
40609;SDS011;26316;55.976;37.140;2023-02-15T09:46:34;7.93;;;2.50;;
40609;SDS011;26316;55.976;37.140;2023-02-15T10:08:37;6.88;;;2.83;;
40609;SDS011;26316;55.976;37.140;2023-02-15T10:11:29;5.97;;;2.28;;
40609;SDS011;26316;55.976;37.140;2023-02-15T10:19:37;4.78;;;2.22;;
40609;SDS011;26316;55.976;37.140;2023-02-15T10:28:50;7.28;;;2.75;;
40609;SDS011;26316;55.976;37.140;2023-02-15T10:31:32;7.03;;;2.97;;
40609;SDS011;26316;55.976;37.140;2023-02-15T10:39:42;5.57;;;2.05;;
40609;SDS011;26316;55.976;37.140;2023-02-15T10:42:25;4.45;;;2.40;;
40609;SDS011;26316;55.976;37.140;2023-02-15T10:50:57;5.68;;;2.83;;
40609;SDS011;26316;55.976;37.140;2023-02-15T10:58:42;7.32;;;2.90;;
40609;SDS011;26316;55.976;37.140;2023-02-15T11:06:50;6.80;;;2.83;;
40609;SDS011;26316;55.976;37.140;2023-02-15T11:09:19;4.20;;;2.38;;
40609;SDS011;26316;55.976;37.140;2023-02-15T11:11:48;3.03;;;2.42;;
40609;SDS011;26316;55.976;37.140;2023-02-15T11:17:04;4.38;;;2.45;;
40609;SDS011;26316;55.976;37.140;2023-02-15T11:19:34;5.47;;;3.20;;
40609;SDS011;26316;55.976;37.140;2023-02-15T11:22:02;4.80;;;2.70;;
40609;SDS011;26316;55.976;37.140;2023-02-15T11:24:30;3.90;;;2.70;;
40609;SDS011;26316;55.976;37.140;2023-02-15T11:27:15;6.07;;;2.78;;
40609;SDS011;26316;55.976;37.140;2023-02-15T11:29:52;7.65;;;3.17;;
40609;SDS011;26316;55.976;37.140;2023-02-15T11:40:34;5.60;;;2.70;;
40609;SDS011;26316;55.976;37.140;2023-02-15T11:43:03;9.45;;;3.17;;
40609;SDS011;26316;55.976;37.140;2023-02-15T11:45:34;7.70;;;2.78;;
40609;SDS011;26316;55.976;37.140;2023-02-15T11:48:00;5.27;;;2.67;;
40609;SDS011;26316;55.976;37.140;2023-02-15T11:50:31;4.30;;;2.63;;
40609;SDS011;26316;55.976;37.140;2023-02-15T11:52:58;3.50;;;2.55;;
40609;SDS011;26316;55.976;37.140;2023-02-15T11:55:29;5.10;;;2.60;;
40609;SDS011;26316;55.976;37.140;2023-02-15T12:00:46;4.35;;;2.88;;
40609;SDS011;26316;55.976;37.140;2023-02-15T12:03:27;6.07;;;3.05;;
40609;SDS011;26316;55.976;37.140;2023-02-15T12:06:01;4.28;;;3.08;;
40609;SDS011;26316;55.976;37.140;2023-02-15T12:08:32;4.70;;;3.33;;
40609;SDS011;26316;55.976;37.140;2023-02-15T12:11:09;2.55;;;2.03;;
40609;SDS011;26316;55.976;37.140;2023-02-15T12:16:45;4.25;;;2.40;;
40609;SDS011;26316;55.976;37.140;2023-02-15T12:19:29;4.47;;;2.53;;
40609;SDS011;26316;55.976;37.140;2023-02-15T12:21:56;4.68;;;2.28;;
40609;SDS011;26316;55.976;37.140;2023-02-15T12:24:34;4.45;;;2.40;;
40609;SDS011;26316;55.976;37.140;2023-02-15T12:27:03;4.03;;;2.30;;
40609;SDS011;26316;55.976;37.140;2023-02-15T12:29:41;5.93;;;2.77;;
40609;SDS011;26316;55.976;37.140;2023-02-15T12:32:17;2.92;;;2.28;;
40609;SDS011;26316;55.976;37.140;2023-02-15T12:34:45;5.22;;;2.63;;
40609;SDS011;26316;55.976;37.140;2023-02-15T12:37:16;7.57;;;3.00;;
40609;SDS011;26316;55.976;37.140;2023-02-15T12:39:51;4.15;;;2.70;;
40609;SDS011;26316;55.976;37.140;2023-02-15T12:42:17;5.50;;;3.20;;
40609;SDS011;26316;55.976;37.140;2023-02-15T12:45:04;7.93;;;3.35;;
40609;SDS011;26316;55.976;37.140;2023-02-15T12:48:08;6.97;;;2.97;;
40609;SDS011;26316;55.976;37.140;2023-02-15T12:50:42;9.35;;;3.42;;
40609;SDS011;26316;55.976;37.140;2023-02-15T12:53:21;5.68;;;3.00;;
40609;SDS011;26316;55.976;37.140;2023-02-15T12:55:50;5.45;;;3.03;;
40609;SDS011;26316;55.976;37.140;2023-02-15T13:00:43;3.65;;;2.58;;
40609;SDS011;26316;55.976;37.140;2023-02-15T13:03:19;4.95;;;2.85;;
40609;SDS011;26316;55.976;37.140;2023-02-15T13:05:53;4.18;;;2.83;;
40609;SDS011;26316;55.976;37.140;2023-02-15T13:08:21;5.90;;;2.70;;
40609;SDS011;26316;55.976;37.140;2023-02-15T13:13:33;6.20;;;2.75;;
40609;SDS011;26316;55.976;37.140;2023-02-15T13:16:01;4.55;;;2.20;;
40609;SDS011;26316;55.976;37.140;2023-02-15T13:18:34;4.75;;;2.72;;
40609;SDS011;26316;55.976;37.140;2023-02-15T13:21:14;3.42;;;2.28;;
40609;SDS011;26316;55.976;37.140;2023-02-15T13:23:55;5.65;;;1.92;;
40609;SDS011;26316;55.976;37.140;2023-02-15T13:26:24;3.90;;;1.67;;
40609;SDS011;26316;55.976;37.140;2023-02-15T13:28:52;7.00;;;2.28;;
40609;SDS011;26316;55.976;37.140;2023-02-15T13:31:21;9.75;;;2.20;;
40609;SDS011;26316;55.976;37.140;2023-02-15T13:39:41;5.20;;;2.35;;
40609;SDS011;26316;55.976;37.140;2023-02-15T13:42:15;5.10;;;2.08;;
40609;SDS011;26316;55.976;37.140;2023-02-15T13:47:48;7.00;;;2.67;;
40609;SDS011;26316;55.976;37.140;2023-02-15T13:55:47;5.80;;;3.20;;
40609;SDS011;26316;55.976;37.140;2023-02-15T14:00:56;11.25;;;4.35;;
40609;SDS011;26316;55.976;37.140;2023-02-15T14:09:03;12.30;;;5.20;;
40609;SDS011;26316;55.976;37.140;2023-02-15T14:30:38;4.25;;;1.90;;
40609;SDS011;26316;55.976;37.140;2023-02-15T14:33:05;5.80;;;2.45;;
40609;SDS011;26316;55.976;37.140;2023-02-15T14:35:33;4.63;;;1.90;;
40609;SDS011;26316;55.976;37.140;2023-02-15T14:40:52;4.25;;;1.98;;
40609;SDS011;26316;55.976;37.140;2023-02-15T14:43:47;6.00;;;1.80;;
40609;SDS011;26316;55.976;37.140;2023-02-15T14:56:42;4.63;;;2.17;;
40609;SDS011;26316;55.976;37.140;2023-02-15T15:01:36;4.38;;;2.67;;
40609;SDS011;26316;55.976;37.140;2023-02-15T15:04:04;3.08;;;2.67;;
40609;SDS011;26316;55.976;37.140;2023-02-15T15:09:43;6.00;;;2.95;;
40609;SDS011;26316;55.976;37.140;2023-02-15T15:11:47;5.70;;;2.70;;
40609;SDS011;26316;55.976;37.140;2023-02-15T15:17:01;4.78;;;3.13;;
40609;SDS011;26316;55.976;37.140;2023-02-15T15:22:22;4.78;;;2.90;;
40609;SDS011;26316;55.976;37.140;2023-02-15T15:32:38;7.88;;;3.45;;
40609;SDS011;26316;55.976;37.140;2023-02-15T15:38:05;6.65;;;3.67;;
40609;SDS011;26316;55.976;37.140;2023-02-15T15:49:20;3.80;;;2.92;;
40609;SDS011;26316;55.976;37.140;2023-02-15T15:51:47;7.68;;;4.30;;
40609;SDS011;26316;55.976;37.140;2023-02-15T15:54:14;6.18;;;3.72;;
40609;SDS011;26316;55.976;37.140;2023-02-15T15:56:43;4.90;;;3.50;;
40609;SDS011;26316;55.976;37.140;2023-02-15T15:59:13;7.68;;;3.10;;
40609;SDS011;26316;55.976;37.140;2023-02-15T16:01:45;5.25;;;3.10;;
40609;SDS011;26316;55.976;37.140;2023-02-15T16:04:11;3.45;;;2.63;;
40609;SDS011;26316;55.976;37.140;2023-02-15T16:06:39;5.70;;;4.10;;
40609;SDS011;26316;55.976;37.140;2023-02-15T16:09:09;5.65;;;4.00;;
40609;SDS011;26316;55.976;37.140;2023-02-15T16:11:40;5.50;;;3.80;;
40609;SDS011;26316;55.976;37.140;2023-02-15T16:14:11;5.90;;;3.88;;
40609;SDS011;26316;55.976;37.140;2023-02-15T16:16:38;5.45;;;3.05;;
40609;SDS011;26316;55.976;37.140;2023-02-15T16:19:04;5.75;;;3.10;;
40609;SDS011;26316;55.976;37.140;2023-02-15T16:21:31;4.47;;;3.00;;
40609;SDS011;26316;55.976;37.140;2023-02-15T16:26:58;4.75;;;3.42;;
40609;SDS011;26316;55.976;37.140;2023-02-15T16:29:35;4.75;;;2.35;;
40609;SDS011;26316;55.976;37.140;2023-02-15T16:32:03;6.18;;;3.15;;
40609;SDS011;26316;55.976;37.140;2023-02-15T16:34:31;7.35;;;2.63;;
40609;SDS011;26316;55.976;37.140;2023-02-15T16:37:13;2.80;;;2.47;;
40609;SDS011;26316;55.976;37.140;2023-02-15T16:39:44;6.97;;;3.30;;
40609;SDS011;26316;55.976;37.140;2023-02-15T16:42:11;4.55;;;2.97;;
40609;SDS011;26316;55.976;37.140;2023-02-15T16:44:37;3.50;;;2.47;;
40609;SDS011;26316;55.976;37.140;2023-02-15T16:47:03;3.58;;;2.38;;
40609;SDS011;26316;55.976;37.140;2023-02-15T16:49:28;4.20;;;2.92;;
40609;SDS011;26316;55.976;37.140;2023-02-15T16:51:56;5.95;;;4.22;;
40609;SDS011;26316;55.976;37.140;2023-02-15T16:54:25;7.15;;;3.33;;
40609;SDS011;26316;55.976;37.140;2023-02-15T16:56:51;3.88;;;2.63;;
40609;SDS011;26316;55.976;37.140;2023-02-15T16:59:19;6.20;;;3.13;;
40609;SDS011;26316;55.976;37.140;2023-02-15T17:01:54;6.65;;;3.25;;
40609;SDS011;26316;55.976;37.140;2023-02-15T17:06:57;6.85;;;2.38;;
40609;SDS011;26316;55.976;37.140;2023-02-15T17:09:25;2.60;;;2.40;;
40609;SDS011;26316;55.976;37.140;2023-02-15T17:11:51;5.00;;;2.17;;
40609;SDS011;26316;55.976;37.140;2023-02-15T17:14:21;3.60;;;2.38;;
40609;SDS011;26316;55.976;37.140;2023-02-15T17:17:07;2.47;;;2.17;;
40609;SDS011;26316;55.976;37.140;2023-02-15T17:19:47;3.83;;;2.20;;
40609;SDS011;26316;55.976;37.140;2023-02-15T17:22:19;2.58;;;2.20;;
40609;SDS011;26316;55.976;37.140;2023-02-15T17:24:47;4.68;;;2.50;;
40609;SDS011;26316;55.976;37.140;2023-02-15T17:27:16;5.72;;;2.50;;
40609;SDS011;26316;55.976;37.140;2023-02-15T17:29:46;11.82;;;2.67;;
40609;SDS011;26316;55.976;37.140;2023-02-15T17:32:24;3.60;;;2.10;;
40609;SDS011;26316;55.976;37.140;2023-02-15T17:37:47;3.28;;;2.40;;
40609;SDS011;26316;55.976;37.140;2023-02-15T17:42:50;2.47;;;1.90;;
40609;SDS011;26316;55.976;37.140;2023-02-15T17:45:16;2.90;;;1.92;;
40609;SDS011;26316;55.976;37.140;2023-02-15T17:47:43;4.72;;;2.20;;
40609;SDS011;26316;55.976;37.140;2023-02-15T17:50:16;3.78;;;2.28;;
40609;SDS011;26316;55.976;37.140;2023-02-15T17:52:50;3.55;;;2.33;;
40609;SDS011;26316;55.976;37.140;2023-02-15T17:55:18;3.30;;;2.03;;
40609;SDS011;26316;55.976;37.140;2023-02-15T17:57:59;2.80;;;1.77;;
40609;SDS011;26316;55.976;37.140;2023-02-15T18:00:26;2.20;;;2.00;;
40609;SDS011;26316;55.976;37.140;2023-02-15T18:03:11;2.50;;;1.83;;
40609;SDS011;26316;55.976;37.140;2023-02-15T18:05:56;2.00;;;1.80;;
40609;SDS011;26316;55.976;37.140;2023-02-15T18:08:41;1.65;;;1.52;;
40609;SDS011;26316;55.976;37.140;2023-02-15T18:11:25;3.10;;;1.80;;
40609;SDS011;26316;55.976;37.140;2023-02-15T18:14:04;3.08;;;2.22;;
40609;SDS011;26316;55.976;37.140;2023-02-15T18:16:32;4.63;;;1.88;;
40609;SDS011;26316;55.976;37.140;2023-02-15T18:19:02;2.78;;;1.77;;
40609;SDS011;26316;55.976;37.140;2023-02-15T18:21:29;1.50;;;1.40;;
40609;SDS011;26316;55.976;37.140;2023-02-15T18:23:56;1.48;;;1.38;;